Données météorologiques d'aviation de Metar     LEVC Valencia Airport



Température
20°C Température
12°C Point de rosée
60% Humidité



Vitesse
13 KM/H
8 MPH
4 M/S
7 KTS



20°
NNE
Conditions actuelles

Partiellement nuageux Partiellement nuageux
Pression 1021.92 (hPa) - 30.18 (inHg)
Visibilité 6.2 (mile) - 10 (km)
Aéroport
Code de l'aéroport LEVC

Emplacement: Valencia Airport
Distance: 18 (km)

Metar:
LEVC 211930Z 02007KT 350V060 9999 FEW025 FEW030CB 20/12 Q1022 TEMPO TSRA

Temps: 21-09-2021 21:30 CEST

Follow @meteolliria2013